Time;durP1;ratioP1;P1;durP2;ratioP2;P2;SDS_P1;SDS_P2;PMS_P1;PMS_P2;Temp;Humidity;BMP_temperature;BMP_pressure;BME280_temperature;BME280_humidity;BME280_pressure;Samples;Min_cycle;Max_cycle;Signal;HPM_P1;HPM_P2
2023/01/28 00:02:06;;;;;;;9.23;4.05;;;7.80;99.90;;;;;;7410313;19;19922;-74
2023/01/28 00:04:32;;;;;;;11.57;4.30;;;7.80;99.90;;;;;;7405160;19;19918;-75
2023/01/28 00:06:58;;;;;;;8.75;3.85;;;7.70;99.90;;;;;;7415244;19;20370;-74
2023/01/28 00:09:24;;;;;;;8.68;4.10;;;7.70;99.90;;;;;;7411385;19;19934;-75
2023/01/28 00:11:50;;;;;;;10.25;4.57;;;7.70;99.90;;;;;;7410728;19;19915;-74
2023/01/28 00:14:16;;;;;;;8.82;4.05;;;7.70;99.90;;;;;;7411488;19;19917;-74
2023/01/28 00:16:42;;;;;;;8.02;3.80;;;7.80;99.90;;;;;;7411949;19;19981;-74
2023/01/28 00:19:08;;;;;;;9.63;3.80;;;7.80;99.90;;;;;;7406168;19;19924;-74
2023/01/28 00:21:34;;;;;;;9.30;4.38;;;7.80;99.90;;;;;;7415948;19;19986;-74
2023/01/28 00:23:59;;;;;;;7.85;3.75;;;7.70;99.90;;;;;;7412556;19;19907;-75
2023/01/28 00:26:25;;;;;;;9.43;4.05;;;7.70;99.90;;;;;;7402623;19;19925;-74
2023/01/28 00:28:51;;;;;;;10.45;4.28;;;7.60;99.90;;;;;;7397381;19;20307;-73
2023/01/28 00:31:20;;;;;;;7.50;3.63;;;7.60;99.90;;;;;;7403548;19;19942;-74
2023/01/28 00:33:48;;;;;;;7.78;3.70;;;7.50;99.90;;;;;;7405640;19;20062;-73
2023/01/28 00:36:14;;;;;;;8.57;3.80;;;7.40;99.90;;;;;;7399704;19;19914;-74
2023/01/28 00:38:43;;;;;;;7.15;3.42;;;7.40;99.90;;;;;;7399788;19;19918;-75
2023/01/28 00:41:10;;;;;;;8.60;3.55;;;7.30;99.90;;;;;;7404455;19;19910;-73
2023/01/28 00:43:37;;;;;;;6.57;3.33;;;7.30;99.90;;;;;;7405155;19;19974;-74
2023/01/28 00:46:06;;;;;;;6.45;3.42;;;7.30;99.90;;;;;;7367838;19;19921;-74
2023/01/28 00:48:36;;;;;;;7.00;3.42;;;7.30;99.90;;;;;;7402486;19;19922;-73
2023/01/28 00:51:03;;;;;;;7.30;3.60;;;7.30;99.90;;;;;;7403930;19;19907;-74
2023/01/28 00:53:29;;;;;;;7.43;3.78;;;7.20;99.90;;;;;;7403179;19;19940;-72
2023/01/28 00:55:55;;;;;;;9.60;3.53;;;7.10;99.90;;;;;;7400561;19;19915;-73
2023/01/28 00:58:23;;;;;;;8.13;3.83;;;7.00;99.90;;;;;;7403219;19;19950;-74
2023/01/28 01:00:49;;;;;;;6.68;3.65;;;7.00;99.90;;;;;;7379576;19;19922;-74
2023/01/28 01:03:16;;;;;;;8.98;3.47;;;6.90;99.90;;;;;;7403136;19;19915;-74
2023/01/28 01:05:42;;;;;;;7.38;3.17;;;6.90;99.90;;;;;;7403082;19;19918;-73
2023/01/28 01:08:08;;;;;;;7.03;3.58;;;6.80;99.90;;;;;;7402381;19;19979;-73
2023/01/28 01:10:34;;;;;;;7.15;3.15;;;6.80;99.90;;;;;;7402100;19;19958;-74
2023/01/28 01:13:00;;;;;;;7.03;2.72;;;6.70;99.90;;;;;;7401467;19;19943;-72
2023/01/28 01:15:26;;;;;;;10.93;3.22;;;6.70;99.80;;;;;;7400786;19;19915;-74
2023/01/28 01:17:52;;;;;;;7.10;2.53;;;6.80;98.90;;;;;;7402298;19;19938;-74
2023/01/28 01:20:20;;;;;;;7.45;2.97;;;6.80;98.30;;;;;;7400998;19;20488;-74
2023/01/28 01:22:46;;;;;;;5.88;2.90;;;6.80;97.90;;;;;;7402245;19;19919;-74
2023/01/28 01:25:14;;;;;;;9.02;3.55;;;6.80;97.00;;;;;;7400745;19;20343;-73
2023/01/28 01:27:40;;;;;;;9.05;4.38;;;6.80;96.60;;;;;;7370739;19;19954;-73
2023/01/28 01:30:08;;;;;;;15.38;3.55;;;6.90;96.20;;;;;;7404891;19;19914;-74
2023/01/28 01:32:34;;;;;;;9.25;3.33;;;6.90;95.70;;;;;;7405765;19;19907;-74
2023/01/28 01:35:01;;;;;;;9.38;3.85;;;7.00;95.40;;;;;;7407144;19;19929;-74
2023/01/28 01:37:28;;;;;;;7.40;3.42;;;7.00;95.30;;;;;;7411013;19;19914;-74
2023/01/28 01:39:54;;;;;;;6.85;2.72;;;7.00;95.10;;;;;;7411699;19;19918;-73
2023/01/28 01:42:20;;;;;;;7.97;2.97;;;7.00;94.90;;;;;;7409936;19;19930;-74
2023/01/28 01:44:58;;;;;;;5.88;2.40;;;7.00;94.60;;;;;;7409451;19;20381;-73
2023/01/28 01:47:28;;;;;;;6.90;2.40;;;7.00;94.30;;;;;;7408895;19;20485;-73
2023/01/28 01:49:55;;;;;;;6.43;1.95;;;6.90;94.00;;;;;;7414297;19;19938;-73
2023/01/28 01:52:32;;;;;;;5.28;1.52;;;7.00;93.80;;;;;;7410589;19;19970;-73
2023/01/28 01:54:59;;;;;;;3.58;1.42;;;7.00;93.50;;;;;;7412583;19;19915;-73
2023/01/28 01:57:36;;;;;;;3.33;1.30;;;6.90;93.30;;;;;;7409842;19;19919;-74
2023/01/28 02:00:06;;;;;;;3.90;1.30;;;6.90;93.00;;;;;;7413504;19;20347;-74
2023/01/28 02:02:40;;;;;;;4.35;1.33;;;6.80;93.30;;;;;;7411652;19;19919;-73
2023/01/28 02:05:11;;;;;;;4.15;1.70;;;6.80;93.20;;;;;;7412935;19;19930;-74
2023/01/28 02:07:38;;;;;;;5.47;1.83;;;6.80;93.30;;;;;;7413325;19;19911;-73
2023/01/28 02:10:05;;;;;;;3.00;1.27;;;6.70;93.60;;;;;;7414023;19;20251;-74
2023/01/28 02:12:35;;;;;;;5.43;1.80;;;6.60;93.90;;;;;;7418660;19;19926;-74
2023/01/28 02:15:11;;;;;;;3.33;1.42;;;6.60;93.60;;;;;;7414873;19;19918;-73
2023/01/28 02:17:37;;;;;;;3.20;1.42;;;6.50;93.60;;;;;;7412984;19;19914;-73
2023/01/28 02:20:12;;;;;;;3.28;1.33;;;6.40;93.60;;;;;;7416187;19;19922;-73
2023/01/28 02:22:50;;;;;;;4.22;1.70;;;6.40;93.70;;;;;;7413989;19;19935;-73
2023/01/28 02:26:08;;;;;;;4.20;1.45;;;6.30;93.80;;;;;;7415839;19;19952;-73
2023/01/28 02:28:54;;;;;;;6.05;2.03;;;6.30;93.80;;;;;;7378694;19;19914;-73
2023/01/28 02:31:41;;;;;;;4.32;2.10;;;6.20;94.20;;;;;;7410808;19;19918;-75
2023/01/28 02:34:07;;;;;;;4.50;1.80;;;6.20;94.50;;;;;;7411677;19;20232;-74
2023/01/28 02:36:53;;;;;;;5.40;1.98;;;6.20;94.50;;;;;;7415137;19;19925;-74
2023/01/28 02:39:33;;;;;;;9.70;2.05;;;6.10;94.70;;;;;;7384010;19;19987;-74
2023/01/28 02:42:15;;;;;;;9.30;2.08;;;6.00;94.80;;;;;;7413528;19;19915;-73
2023/01/28 02:44:41;;;;;;;4.97;2.10;;;6.00;94.70;;;;;;7410318;19;19923;-74
2023/01/28 02:49:59;;;;;;;7.00;2.17;;;6.00;94.80;;;;;;7413873;19;19921;-73
2023/01/28 02:55:39;;;;;;;7.78;2.47;;;6.00;94.90;;;;;;7414190;19;19929;-74
2023/01/28 02:58:28;;;;;;;6.10;2.50;;;6.00;95.00;;;;;;7411460;19;19942;-74
2023/01/28 03:01:20;;;;;;;6.95;3.20;;;6.10;95.30;;;;;;7414964;19;19933;-73
2023/01/28 03:04:17;;;;;;;6.90;3.10;;;6.10;96.00;;;;;;7412192;19;19914;-73
2023/01/28 03:06:54;;;;;;;7.55;3.58;;;6.10;96.20;;;;;;7412062;19;19918;-74
2023/01/28 03:09:22;;;;;;;8.25;3.88;;;6.00;96.30;;;;;;7410936;19;19925;-73
2023/01/28 03:37:27;;;;;;;;;;;6.00;96.40;;;;;;7416925;19;20252;-74
2023/01/28 03:39:56;;;;;;;7.82;2.58;;;6.00;96.30;;;;;;7416593;19;19951;-73
2023/01/28 03:42:22;;;;;;;6.05;2.83;;;6.10;96.40;;;;;;7414940;19;22410;-73
2023/01/28 03:44:51;;;;;;;5.72;2.63;;;6.10;95.90;;;;;;7412206;19;19930;-73
2023/01/28 03:47:26;;;;;;;6.65;2.67;;;6.10;95.90;;;;;;7412348;19;19914;-74
2023/01/28 03:49:54;;;;;;;6.50;2.70;;;6.10;96.20;;;;;;7415752;19;19911;-74
2023/01/28 03:52:23;;;;;;;6.38;2.67;;;6.10;96.40;;;;;;7409768;19;19910;-73
2023/01/28 03:54:50;;;;;;;10.65;2.58;;;6.10;96.60;;;;;;7414113;19;19941;-73
2023/01/28 03:57:17;;;;;;;;;;;6.10;96.70;;;;;;7416129;19;19924;-72
2023/01/28 03:59:42;;;;;;;5.95;2.92;;;6.00;96.80;;;;;;7412488;19;19929;-73
2023/01/28 04:02:12;;;;;;;6.82;3.00;;;6.00;96.90;;;;;;7415678;19;19922;-74
2023/01/28 04:04:39;;;;;;;7.22;2.50;;;5.90;97.20;;;;;;7412733;19;19914;-74
2023/01/28 04:07:15;;;;;;;9.07;3.00;;;6.00;97.50;;;;;;7415620;19;19922;-74
2023/01/28 04:09:42;;;;;;;6.68;2.53;;;6.00;97.50;;;;;;7412943;19;19907;-73
2023/01/28 04:12:08;;;;;;;8.25;3.55;;;5.90;97.50;;;;;;7412441;19;19966;-74
2023/01/28 04:14:34;;;;;;;6.85;3.03;;;5.90;97.70;;;;;;7413864;19;19906;-73
2023/01/28 04:17:00;;;;;;;6.97;3.20;;;5.90;98.50;;;;;;7415265;19;19910;-73
2023/01/28 04:19:27;;;;;;;6.38;2.85;;;6.00;98.50;;;;;;7410856;19;19915;-73
2023/01/28 04:21:53;;;;;;;8.07;2.60;;;5.90;98.00;;;;;;7415132;19;20011;-73
2023/01/28 04:24:19;;;;;;;5.90;2.70;;;6.00;97.50;;;;;;7411061;19;19911;-73
2023/01/28 04:26:45;;;;;;;6.88;2.38;;;6.00;97.10;;;;;;7411934;19;19955;-73
2023/01/28 04:29:11;;;;;;;5.85;2.20;;;5.90;97.00;;;;;;7409735;19;19915;-73
2023/01/28 04:31:37;;;;;;;7.40;2.50;;;5.80;96.60;;;;;;7412006;19;19925;-73
2023/01/28 04:34:02;;;;;;;5.63;2.00;;;5.70;96.20;;;;;;7411096;19;19948;-74
2023/01/28 04:36:28;;;;;;;5.50;2.30;;;5.60;96.30;;;;;;7412832;19;19915;-73
2023/01/28 04:38:54;;;;;;;6.53;2.30;;;5.60;97.10;;;;;;7416061;19;19935;-73
2023/01/28 04:41:20;;;;;;;4.65;2.22;;;5.50;96.50;;;;;;7408179;19;19907;-72
2023/01/28 04:43:48;;;;;;;5.95;2.97;;;5.50;97.00;;;;;;7413438;19;19915;-72
2023/01/28 04:46:15;;;;;;;7.03;2.33;;;5.50;96.90;;;;;;7410142;19;19926;-73
2023/01/28 04:48:41;;;;;;;5.00;2.00;;;5.50;97.00;;;;;;7413525;19;19941;-74
2023/01/28 04:51:07;;;;;;;5.90;1.98;;;5.60;97.10;;;;;;7406610;19;19914;-73
2023/01/28 04:53:33;;;;;;;5.00;2.30;;;5.60;97.20;;;;;;7354066;19;19918;-74
2023/01/28 04:55:59;;;;;;;5.30;2.30;;;5.80;97.20;;;;;;7408691;19;19924;-73
2023/01/28 04:58:25;;;;;;;6.22;2.10;;;5.80;97.10;;;;;;7409353;19;19910;-73
2023/01/28 05:00:56;;;;;;;5.22;2.13;;;5.80;96.90;;;;;;7409168;19;19918;-73
2023/01/28 05:03:23;;;;;;;5.03;1.98;;;5.80;96.80;;;;;;7409489;19;20528;-73
2023/01/28 05:05:49;;;;;;;4.28;2.00;;;5.80;96.90;;;;;;7409897;19;19939;-74
2023/01/28 05:08:15;;;;;;;6.25;2.38;;;5.80;97.10;;;;;;7409278;19;19919;-73
2023/01/28 05:10:41;;;;;;;6.25;2.30;;;5.90;97.10;;;;;;7413148;19;20309;-73
2023/01/28 05:13:07;;;;;;;6.93;2.80;;;5.90;97.00;;;;;;7416486;19;19970;-72
2023/01/28 05:15:32;;;;;;;6.93;2.88;;;5.90;97.10;;;;;;7413548;19;19914;-74
2023/01/28 05:17:58;;;;;;;5.72;3.40;;;5.90;97.20;;;;;;7418016;19;19938;-73
2023/01/28 05:20:25;;;;;;;5.93;2.47;;;5.90;97.40;;;;;;7414139;19;19927;-73
2023/01/28 05:22:51;;;;;;;4.30;1.70;;;5.90;97.30;;;;;;7415826;19;19978;-73
2023/01/28 05:25:17;;;;;;;4.75;2.17;;;5.90;97.30;;;;;;7411490;19;19932;-73
2023/01/28 05:27:42;;;;;;;6.22;2.53;;;5.90;97.20;;;;;;7414397;19;19972;-74
2023/01/28 05:30:09;;;;;;;4.90;2.45;;;6.00;97.20;;;;;;7411970;19;20349;-73
2023/01/28 05:32:35;;;;;;;4.90;2.22;;;6.00;97.20;;;;;;7415885;19;19914;-74
2023/01/28 05:35:01;;;;;;;5.70;2.28;;;6.00;97.20;;;;;;7411629;19;19922;-73
2023/01/28 05:37:26;;;;;;;5.20;2.08;;;5.90;97.30;;;;;;7413384;19;20272;-73
2023/01/28 05:39:52;;;;;;;4.93;2.22;;;5.90;97.70;;;;;;7414134;19;19926;-73
2023/01/28 05:42:19;;;;;;;5.22;1.95;;;5.90;96.10;;;;;;7415109;19;19919;-73
2023/01/28 05:44:45;;;;;;;5.85;1.77;;;5.90;95.40;;;;;;7415741;19;19951;-73
2023/01/28 05:47:11;;;;;;;4.22;1.60;;;5.80;95.00;;;;;;7415390;19;19915;-73
2023/01/28 05:49:37;;;;;;;4.47;1.73;;;5.80;95.00;;;;;;7415176;19;19910;-73
2023/01/28 05:52:03;;;;;;;4.82;1.63;;;5.80;94.70;;;;;;7412196;19;20235;-73
2023/01/28 05:54:28;;;;;;;5.32;1.52;;;5.80;94.30;;;;;;7414840;19;19922;-73
2023/01/28 05:56:54;;;;;;;3.70;1.50;;;5.80;94.00;;;;;;7414357;19;19927;-73
2023/01/28 05:59:20;;;;;;;3.35;1.48;;;5.70;94.00;;;;;;7413163;19;19914;-73
2023/01/28 06:01:46;;;;;;;4.30;2.17;;;5.70;94.30;;;;;;7412952;19;19930;-73
2023/01/28 06:04:12;;;;;;;8.82;2.97;;;5.70;94.10;;;;;;7412738;19;19954;-74
2023/01/28 06:06:38;;;;;;;4.95;1.70;;;5.70;93.90;;;;;;7413872;19;20087;-72
2023/01/28 06:09:03;;;;;;;4.72;1.95;;;5.70;93.80;;;;;;7413647;19;19914;-73
2023/01/28 06:11:29;;;;;;;5.20;1.58;;;5.70;94.10;;;;;;7413043;19;20255;-74
2023/01/28 06:13:55;;;;;;;4.35;1.75;;;5.80;93.90;;;;;;7409367;19;19914;-73
2023/01/28 06:16:21;;;;;;;3.70;1.48;;;5.80;93.60;;;;;;7417273;19;20258;-74
2023/01/28 06:18:46;;;;;;;3.55;1.33;;;5.80;93.50;;;;;;7419687;19;20335;-73
2023/01/28 06:21:12;;;;;;;4.43;1.80;;;5.90;93.50;;;;;;7417026;19;20011;-73
2023/01/28 06:23:38;;;;;;;4.85;1.73;;;5.90;93.50;;;;;;7418665;19;19922;-74
2023/01/28 06:26:04;;;;;;;4.53;1.48;;;5.90;93.30;;;;;;7415427;19;19914;-71
2023/01/28 06:28:29;;;;;;;6.05;1.70;;;5.90;93.30;;;;;;7417210;19;19934;-72
2023/01/28 06:30:56;;;;;;;4.35;1.45;;;5.90;93.20;;;;;;7415691;19;19926;-74
2023/01/28 06:33:23;;;;;;;4.70;1.67;;;5.90;93.10;;;;;;7416011;19;19974;-74
2023/01/28 06:35:48;;;;;;;4.57;1.52;;;5.90;93.40;;;;;;7414194;19;19922;-73
2023/01/28 06:38:14;;;;;;;6.28;1.90;;;5.90;93.20;;;;;;7413963;19;19911;-72
2023/01/28 06:40:40;;;;;;;4.47;1.75;;;5.90;93.20;;;;;;7415578;19;19918;-73
2023/01/28 06:43:06;;;;;;;3.22;1.33;;;5.90;93.40;;;;;;7381797;19;19925;-73
2023/01/28 06:45:32;;;;;;;4.32;1.67;;;5.90;93.40;;;;;;7415862;19;19926;-73
2023/01/28 06:47:58;;;;;;;5.03;1.52;;;5.90;93.40;;;;;;7413869;19;19914;-73
2023/01/28 06:50:24;;;;;;;4.97;1.85;;;5.90;93.40;;;;;;7413736;19;19915;-73
2023/01/28 06:52:50;;;;;;;5.30;1.60;;;6.00;93.30;;;;;;7413593;19;20351;-73
2023/01/28 06:55:16;;;;;;;5.13;1.70;;;6.00;93.40;;;;;;7394023;19;19922;-73
2023/01/28 06:57:44;;;;;;;4.43;1.67;;;6.00;93.40;;;;;;7418063;19;19930;-73
2023/01/28 07:00:12;;;;;;;4.57;2.00;;;6.00;93.20;;;;;;7419640;19;19915;-73
2023/01/28 07:02:38;;;;;;;5.80;1.63;;;6.00;93.20;;;;;;7417617;19;19919;-72
2023/01/28 07:05:05;;;;;;;5.63;2.00;;;6.00;93.30;;;;;;7417419;19;19914;-74
2023/01/28 07:07:31;;;;;;;5.22;2.33;;;6.10;93.30;;;;;;7417921;19;19931;-74
2023/01/28 07:09:57;;;;;;;4.93;1.65;;;6.10;93.30;;;;;;7413784;19;19922;-74
2023/01/28 07:12:23;;;;;;;3.88;1.65;;;6.10;93.40;;;;;;7411949;19;19931;-74
2023/01/28 07:14:49;;;;;;;4.95;2.05;;;6.20;93.40;;;;;;7416677;19;19914;-74
2023/01/28 07:17:18;;;;;;;4.68;1.85;;;6.20;93.40;;;;;;7417480;19;20358;-75
2023/01/28 07:19:43;;;;;;;5.78;2.10;;;6.30;93.40;;;;;;7420047;19;19922;-74
2023/01/28 07:22:09;;;;;;;6.10;2.20;;;6.30;93.30;;;;;;7414599;19;19990;-74
2023/01/28 07:24:35;;;;;;;4.85;2.22;;;6.30;93.20;;;;;;7417540;19;19945;-75
2023/01/28 07:27:02;;;;;;;4.97;2.25;;;6.30;93.20;;;;;;7414541;19;19911;-76
2023/01/28 07:29:28;;;;;;;7.00;2.38;;;6.40;93.20;;;;;;7412611;19;19921;-73
2023/01/28 07:31:53;;;;;;;6.32;2.20;;;6.40;93.20;;;;;;7414028;19;20303;-73
2023/01/28 07:34:19;;;;;;;4.95;2.08;;;6.40;93.20;;;;;;7390952;19;19929;-73
2023/01/28 07:36:45;;;;;;;5.63;2.22;;;6.40;93.20;;;;;;7412863;19;19918;-73
2023/01/28 07:39:11;;;;;;;7.60;2.38;;;6.50;93.30;;;;;;7410373;19;19978;-75
2023/01/28 07:41:36;;;;;;;6.78;2.30;;;6.60;93.20;;;;;;7413864;19;19966;-74
2023/01/28 07:44:02;;;;;;;5.15;1.83;;;6.60;93.00;;;;;;7413764;19;19935;-73
2023/01/28 07:46:28;;;;;;;6.20;2.20;;;6.60;93.00;;;;;;7415027;19;20369;-76
2023/01/28 07:48:54;;;;;;;7.20;2.28;;;6.60;92.90;;;;;;7413581;19;19919;-74
2023/01/28 07:51:20;;;;;;;5.20;2.03;;;6.60;92.90;;;;;;7411790;19;19982;-75
2023/01/28 07:53:45;;;;;;;6.85;2.47;;;6.50;92.90;;;;;;7412295;19;19929;-74
2023/01/28 07:56:11;;;;;;;7.10;2.38;;;6.40;92.90;;;;;;7410589;19;20011;-74
2023/01/28 07:58:37;;;;;;;6.40;2.20;;;6.30;93.20;;;;;;7412594;19;20323;-74
2023/01/28 08:01:03;;;;;;;5.57;2.38;;;6.30;93.20;;;;;;7412027;19;19917;-73
2023/01/28 08:03:29;;;;;;;5.72;2.60;;;6.30;93.50;;;;;;7411554;19;19919;-74
2023/01/28 08:05:56;;;;;;;5.28;2.42;;;6.30;93.20;;;;;;7413913;19;19911;-73
2023/01/28 08:08:23;;;;;;;6.40;2.42;;;6.20;93.00;;;;;;7411240;19;20076;-74
2023/01/28 08:10:49;;;;;;;;;;;6.30;92.90;;;;;;7412491;19;19915;-73
2023/01/28 08:13:16;;;;;;;6.22;2.40;;;6.30;92.90;;;;;;7409337;19;19918;-75
2023/01/28 08:15:43;;;;;;;7.55;3.05;;;6.30;92.90;;;;;;7411657;19;19914;-75
2023/01/28 08:18:12;;;;;;;6.57;2.95;;;6.20;92.90;;;;;;7409528;19;19921;-75
2023/01/28 08:20:46;;;;;;;8.55;2.30;;;6.10;93.10;;;;;;7412861;19;20243;-73
2023/01/28 08:23:17;;;;;;;5.85;2.53;;;6.10;93.10;;;;;;7408090;19;19910;-73
2023/01/28 08:25:43;;;;;;;7.15;2.33;;;6.10;93.30;;;;;;7412719;19;20575;-74
2023/01/28 08:28:10;;;;;;;5.03;2.28;;;6.20;93.10;;;;;;7409450;19;19942;-72
2023/01/28 08:30:37;;;;;;;5.82;2.60;;;6.40;93.00;;;;;;7412548;19;19926;-73
2023/01/28 08:33:04;;;;;;;4.60;2.03;;;6.40;92.80;;;;;;7408311;19;20330;-74
2023/01/28 08:35:31;;;;;;;5.75;2.10;;;6.50;92.80;;;;;;7409645;19;19954;-74
2023/01/28 08:37:59;;;;;;;5.10;1.70;;;6.70;92.40;;;;;;7410668;19;19927;-74
2023/01/28 08:40:25;;;;;;;5.55;2.00;;;6.50;92.70;;;;;;7389584;19;19935;-73
2023/01/28 08:42:52;;;;;;;6.88;2.10;;;6.60;92.90;;;;;;7412010;19;19935;-75
2023/01/28 08:45:24;;;;;;;4.38;1.67;;;6.70;92.80;;;;;;7410693;19;19935;-73
2023/01/28 08:47:56;;;;;;;3.90;1.73;;;6.40;92.90;;;;;;7401279;19;19918;-73
2023/01/28 08:50:23;;;;;;;5.30;2.05;;;6.40;93.10;;;;;;7407628;19;20520;-74
2023/01/28 08:52:58;;;;;;;4.35;1.73;;;7.40;92.60;;;;;;7388876;19;19911;-73
2023/01/28 08:55:25;;;;;;;6.22;2.28;;;7.50;92.70;;;;;;7362656;19;19945;-74
2023/01/28 08:57:51;;;;;;;;;;;7.20;92.10;;;;;;7405190;19;19911;-75
2023/01/28 09:00:19;;;;;;;4.07;1.75;;;6.70;92.70;;;;;;7403415;19;19915;-75
2023/01/28 09:02:44;;;;;;;7.05;2.83;;;6.40;93.10;;;;;;7409345;19;19951;-75
2023/01/28 09:05:11;;;;;;;4.57;1.73;;;6.40;93.10;;;;;;7407841;19;19929;-74
2023/01/28 09:07:39;;;;;;;4.28;2.08;;;6.50;93.10;;;;;;7412587;19;19911;-73
2023/01/28 09:10:05;;;;;;;5.97;1.83;;;6.60;93.00;;;;;;7409273;19;19932;-74
2023/01/28 09:12:32;;;;;;;6.32;2.60;;;6.70;92.70;;;;;;7411507;19;19937;-74
2023/01/28 09:14:58;;;;;;;4.32;2.20;;;7.20;92.40;;;;;;7393027;19;19931;-74
2023/01/28 09:17:25;;;;;;;7.25;2.30;;;7.00;92.00;;;;;;7396750;19;19911;-74
2023/01/28 09:19:51;;;;;;;4.70;1.60;;;7.00;92.10;;;;;;7404380;19;20280;-73
2023/01/28 09:22:17;;;;;;;6.20;2.45;;;6.90;91.90;;;;;;7405931;19;19911;-74
2023/01/28 09:24:43;;;;;;;4.78;2.03;;;6.90;92.10;;;;;;7400041;19;19926;-73
2023/01/28 09:27:08;;;;;;;5.88;1.90;;;6.90;92.30;;;;;;7405615;19;19949;-73
2023/01/28 09:29:35;;;;;;;5.68;2.58;;;7.00;92.20;;;;;;7406232;19;20021;-74
2023/01/28 09:32:01;;;;;;;4.28;1.70;;;7.00;92.10;;;;;;7405673;19;20006;-74
2023/01/28 09:34:26;;;;;;;4.93;1.90;;;7.00;91.90;;;;;;7408285;19;19976;-73
2023/01/28 09:36:52;;;;;;;4.82;1.65;;;7.20;91.80;;;;;;7404919;19;19919;-73
2023/01/28 09:39:18;;;;;;;4.75;2.00;;;7.00;91.60;;;;;;7400577;19;19982;-74
2023/01/28 09:42:13;;;;;;;5.57;2.50;;;7.40;91.70;;;;;;7409261;19;19967;-76
2023/01/28 09:45:09;;;;;;;4.30;1.60;;;8.10;91.10;;;;;;7413324;19;20270;-75
2023/01/28 09:47:42;;;;;;;6.18;1.80;;;8.10;90.70;;;;;;7414614;19;19923;-79
2023/01/28 09:50:22;;;;;;;3.85;1.67;;;8.40;90.50;;;;;;7369471;19;20358;-73
2023/01/28 09:52:50;;;;;;;4.07;1.30;;;8.70;90.00;;;;;;7414284;19;19921;-73
2023/01/28 09:55:29;;;;;;;4.45;1.92;;;8.70;89.00;;;;;;7410232;19;19915;-74
2023/01/28 09:57:55;;;;;;;7.10;2.03;;;8.80;90.10;;;;;;7411523;19;19922;-75
2023/01/28 10:00:23;;;;;;;;;;;9.50;88.60;;;;;;7413766;19;19931;-74
2023/01/28 10:02:51;;;;;;;7.70;2.17;;;10.50;88.00;;;;;;7407200;19;19958;-74
2023/01/28 10:05:29;;;;;;;3.83;1.80;;;11.20;85.80;;;;;;7406869;19;19918;-73
2023/01/28 10:08:01;;;;;;;6.82;1.70;;;11.30;84.80;;;;;;7406599;19;19920;-74
2023/01/28 10:10:39;;;;;;;4.70;1.92;;;10.50;85.10;;;;;;7408984;19;19918;-74
2023/01/28 10:13:11;;;;;;;5.03;2.20;;;9.80;87.20;;;;;;7364630;19;19990;-75
2023/01/28 10:15:48;;;;;;;5.97;2.22;;;10.20;87.50;;;;;;7404453;19;19911;-74
2023/01/28 10:18:14;;;;;;;3.92;1.55;;;10.70;88.00;;;;;;7406480;19;19911;-74
2023/01/28 10:20:51;;;;;;;4.68;2.05;;;11.20;86.50;;;;;;7406147;19;19945;-75
2023/01/28 10:23:20;;;;;;;4.97;2.20;;;11.80;85.30;;;;;;7409158;19;19926;-74
2023/01/28 10:25:47;;;;;;;8.38;3.65;;;11.70;84.00;;;;;;7407016;19;19957;-74
2023/01/28 10:28:33;;;;;;;;;;;11.00;85.30;;;;;;7406938;19;19914;-73
2023/01/28 10:30:59;;;;;;;5.15;2.42;;;10.30;86.00;;;;;;7405903;19;20392;-73
2023/01/28 10:33:35;;;;;;;4.75;2.33;;;10.10;87.20;;;;;;7405779;19;19914;-74
2023/01/28 10:36:01;;;;;;;5.50;1.92;;;10.40;86.10;;;;;;7405509;19;19935;-73
2023/01/28 10:38:29;;;;;;;4.80;2.03;;;9.90;87.50;;;;;;7402993;19;19921;-76
2023/01/28 10:41:01;;;;;;;5.35;2.10;;;9.40;87.70;;;;;;7404036;19;20271;-74
2023/01/28 10:43:32;;;;;;;5.28;2.42;;;9.20;88.80;;;;;;7404058;19;19946;-74
2023/01/28 10:46:06;;;;;;;4.68;2.38;;;9.60;89.00;;;;;;7407266;19;19915;-75
2023/01/28 10:48:36;;;;;;;7.93;2.70;;;9.60;88.90;;;;;;7405186;19;19914;-75
2023/01/28 10:51:06;;;;;;;7.03;2.78;;;9.50;88.90;;;;;;7407164;19;19926;-74
2023/01/28 10:53:40;;;;;;;6.18;3.05;;;10.30;88.00;;;;;;7407696;19;19919;-77
2023/01/28 10:56:29;;;;;;;7.70;3.08;;;10.90;86.80;;;;;;7405910;19;19914;-76
2023/01/28 10:59:28;;;;;;;6.97;3.13;;;10.70;87.00;;;;;;7408170;19;19914;-74
2023/01/28 11:01:58;;;;;;;7.70;3.53;;;10.60;88.20;;;;;;7407218;19;19946;-75
2023/01/28 11:04:42;;;;;;;6.60;3.42;;;11.10;87.20;;;;;;7404729;19;20941;-76
2023/01/28 11:07:19;;;;;;;7.53;3.88;;;12.10;86.00;;;;;;7404578;19;19918;-75
2023/01/28 11:09:48;;;;;;;6.40;3.28;;;12.50;84.80;;;;;;7409241;19;19930;-75
2023/01/28 11:12:19;;;;;;;8.55;3.55;;;12.40;85.10;;;;;;7406247;19;19910;-76
2023/01/28 11:15:03;;;;;;;6.25;3.42;;;11.90;85.40;;;;;;7409696;19;19926;-78
2023/01/28 11:17:33;;;;;;;5.82;2.83;;;11.70;86.40;;;;;;7406916;19;19911;-74
2023/01/28 11:20:12;;;;;;;6.65;3.00;;;10.70;88.60;;;;;;7407412;19;20269;-77
2023/01/28 11:22:42;;;;;;;6.63;3.10;;;10.80;88.60;;;;;;7369850;19;20382;-75
2023/01/28 11:25:29;;;;;;;8.70;3.83;;;10.00;89.80;;;;;;7404580;19;19944;-75
2023/01/28 11:27:57;;;;;;;9.40;3.85;;;10.00;90.40;;;;;;7406762;19;19918;-75
2023/01/28 11:30:24;;;;;;;7.05;3.22;;;9.90;90.50;;;;;;7402394;19;19938;-77
2023/01/28 11:33:13;;;;;;;7.78;3.25;;;10.90;90.20;;;;;;7405045;19;19926;-74
2023/01/28 11:35:39;;;;;;;7.53;3.50;;;11.70;89.00;;;;;;7408613;19;19919;-75
2023/01/28 11:38:17;;;;;;;5.65;3.28;;;12.50;87.70;;;;;;7406559;19;20540;-76
2023/01/28 11:40:55;;;;;;;6.70;3.67;;;14.30;84.80;;;;;;7411523;19;20456;-76
2023/01/28 11:43:24;;;;;;;8.05;4.13;;;14.20;83.00;;;;;;7412213;19;19950;-75
2023/01/28 11:46:11;;;;;;;6.13;3.40;;;13.30;84.30;;;;;;7409172;19;19922;-75
2023/01/28 11:49:00;;;;;;;9.20;4.70;;;12.80;85.20;;;;;;7400491;19;19914;-77
2023/01/28 11:51:46;;;;;;;7.72;3.53;;;12.20;86.40;;;;;;7400568;19;19915;-77
2023/01/28 11:54:34;;;;;;;9.60;3.65;;;11.80;87.80;;;;;;7398483;19;19921;-76
2023/01/28 11:57:26;;;;;;;7.53;3.97;;;11.10;88.40;;;;;;7399702;19;19918;-76
2023/01/28 12:00:09;;;;;;;6.95;3.60;;;10.70;89.90;;;;;;7398684;19;19923;-75
2023/01/28 12:02:47;;;;;;;8.57;3.92;;;10.40;89.20;;;;;;7401394;19;19915;-77
2023/01/28 12:05:39;;;;;;;6.05;3.70;;;10.50;90.30;;;;;;7396588;19;19910;-75
2023/01/28 12:08:27;;;;;;;7.43;3.53;;;10.60;90.30;;;;;;7398185;19;20342;-75
2023/01/28 12:11:06;;;;;;;5.97;3.30;;;10.80;90.20;;;;;;7398597;19;19922;-75
2023/01/28 12:13:38;;;;;;;6.90;3.38;;;10.80;90.10;;;;;;7365456;19;19923;-74
2023/01/28 12:16:25;;;;;;;6.55;3.17;;;10.20;90.90;;;;;;7396509;19;19907;-75
2023/01/28 12:19:23;;;;;;;6.63;3.55;;;10.20;90.70;;;;;;7397051;19;19914;-76
2023/01/28 12:22:27;;;;;;;8.13;3.70;;;10.60;90.70;;;;;;7397530;19;19922;-75
2023/01/28 12:25:08;;;;;;;8.65;3.90;;;10.10;90.40;;;;;;7365364;19;20342;-75
2023/01/28 12:28:12;;;;;;;8.02;4.30;;;10.10;90.70;;;;;;7399168;19;19914;-75
2023/01/28 12:31:05;;;;;;;9.68;4.30;;;9.90;90.30;;;;;;7401971;19;20429;-73
2023/01/28 12:33:45;;;;;;;11.45;4.57;;;10.20;90.00;;;;;;7397656;19;19947;-74
2023/01/28 12:36:28;;;;;;;8.05;4.13;;;10.20;89.70;;;;;;7401276;19;19922;-74
2023/01/28 12:39:09;;;;;;;9.32;4.88;;;11.40;88.20;;;;;;7402700;19;20016;-74
2023/01/28 12:41:42;;;;;;;8.60;3.92;;;12.20;87.10;;;;;;7402645;19;19919;-74
2023/01/28 12:44:19;;;;;;;12.15;5.32;;;12.10;85.00;;;;;;7405583;19;19914;-73
2023/01/28 12:46:54;;;;;;;9.43;5.03;;;11.80;87.10;;;;;;7406171;19;19907;-75
2023/01/28 12:49:34;;;;;;;8.07;4.80;;;14.50;83.90;;;;;;7407152;19;19914;-75
2023/01/28 12:52:04;;;;;;;10.43;5.32;;;15.70;79.90;;;;;;7404375;19;19924;-73
2023/01/28 12:54:51;;;;;;;9.90;4.75;;;14.40;81.10;;;;;;7401005;19;19978;-74
2023/01/28 12:57:29;;;;;;;11.75;5.45;;;14.20;82.00;;;;;;7402899;19;19938;-74
2023/01/28 13:00:23;;;;;;;10.55;5.43;;;14.40;81.10;;;;;;7406534;19;20331;-74
2023/01/28 13:03:25;;;;;;;10.85;5.13;;;14.20;81.70;;;;;;7368489;19;19950;-75
2023/01/28 13:05:57;;;;;;;8.38;5.10;;;13.60;81.80;;;;;;7397756;19;19937;-75
2023/01/28 13:08:25;;;;;;;8.52;5.15;;;13.10;83.00;;;;;;7398792;19;20038;-75
2023/01/28 13:10:52;;;;;;;11.27;4.70;;;12.70;83.90;;;;;;7397487;19;19946;-75
2023/01/28 13:13:21;;;;;;;10.48;5.65;;;12.20;85.10;;;;;;7393958;19;19918;-76
2023/01/28 13:15:47;;;;;;;9.43;5.18;;;12.10;85.90;;;;;;7395607;19;19915;-75
2023/01/28 13:18:43;;;;;;;9.32;4.93;;;12.10;85.90;;;;;;7394984;19;19910;-75
2023/01/28 13:21:27;;;;;;;10.23;5.35;;;11.80;86.40;;;;;;7391589;19;19911;-75
2023/01/28 13:24:08;;;;;;;11.68;5.10;;;10.80;88.30;;;;;;7396258;19;20339;-75
2023/01/28 13:26:43;;;;;;;10.65;5.25;;;10.70;89.90;;;;;;7396089;19;19944;-75
2023/01/28 13:29:25;;;;;;;9.98;5.20;;;11.10;89.70;;;;;;7343276;19;19941;-75
2023/01/28 13:31:57;;;;;;;13.27;5.50;;;11.20;89.40;;;;;;7399294;19;19911;-76
2023/01/28 13:34:43;;;;;;;11.95;5.35;;;11.40;88.80;;;;;;7404370;19;19938;-76
2023/01/28 13:37:29;;;;;;;10.25;5.10;;;11.50;88.70;;;;;;7401413;19;19940;-76
2023/01/28 13:40:05;;;;;;;10.43;5.28;;;11.50;89.40;;;;;;7403456;19;19923;-76
2023/01/28 13:42:31;;;;;;;9.70;4.97;;;11.40;89.70;;;;;;7402626;19;19978;-75
2023/01/28 13:45:15;;;;;;;13.48;4.80;;;11.20;90.20;;;;;;7403440;19;19927;-75
2023/01/28 13:48:22;;;;;;;13.15;5.45;;;11.00;90.50;;;;;;7401974;19;19910;-75